Time;durP1;ratioP1;P1;durP2;ratioP2;P2;SDS_P1;SDS_P2;PMS_P1;PMS_P2;Temp;Humidity;BMP_temperature;BMP_pressure;BME280_temperature;BME280_humidity;BME280_pressure;Samples;Min_cycle;Max_cycle;Signal;HPM_P1;HPM_P2
2023/08/23 00:00:22;;;;;;;2.78;1.02;;;;;;;26.72;28.99;100914.72;5030864;28;20050;-70
2023/08/23 00:02:50;;;;;;;2.08;0.70;;;;;;;26.74;28.88;100908.44;5015063;28;20046;-69
2023/08/23 00:05:22;;;;;;;3.13;0.75;;;;;;;26.71;28.65;100905.06;5029599;28;20041;-70
2023/08/23 00:07:53;;;;;;;4.78;0.80;;;;;;;26.67;29.17;100906.06;5030337;28;20128;-70
2023/08/23 00:10:23;;;;;;;3.40;0.60;;;;;;;26.62;28.79;100908.88;5020911;28;20131;-70
2023/08/23 00:12:55;;;;;;;2.05;0.68;;;;;;;26.56;28.68;100914.41;5029069;28;20068;-71
2023/08/23 00:15:24;;;;;;;2.63;0.60;;;;;;;26.52;28.93;100904.78;5027139;28;20057;-70
2023/08/23 00:17:53;;;;;;;6.40;0.70;;;;;;;26.60;28.94;100907.22;5026493;28;20038;-71
2023/08/23 00:20:21;;;;;;;2.35;0.82;;;;;;;26.70;28.84;100905.94;5026777;28;20050;-70
2023/08/23 00:22:50;;;;;;;3.72;0.70;;;;;;;26.62;28.49;100898.28;5024690;28;20049;-71
2023/08/23 00:25:29;;;;;;;1.88;0.57;;;;;;;26.60;28.72;100907.22;5019552;28;20072;-70
2023/08/23 00:27:59;;;;;;;2.15;0.60;;;;;;;26.50;28.85;100904.84;5019654;28;20053;-70
2023/08/23 00:30:33;;;;;;;2.28;0.55;;;;;;;26.39;28.57;100901.69;5022046;28;20087;-68
2023/08/23 00:33:08;;;;;;;2.92;0.60;;;;;;;26.28;28.84;100903.84;5021217;28;20049;-69
2023/08/23 00:35:37;;;;;;;2.03;0.70;;;;;;;26.24;29.02;100911.00;5020272;28;20052;-73
2023/08/23 00:38:06;;;;;;;1.25;0.77;;;;;;;26.27;29.12;100907.38;5020765;28;20045;-72
2023/08/23 00:40:36;;;;;;;2.67;1.10;;;;;;;26.26;29.55;100909.19;5028029;28;20055;-72
2023/08/23 00:43:07;;;;;;;2.53;0.80;;;;;;;26.41;29.42;100902.50;5029586;28;20656;-72
2023/08/23 00:45:37;;;;;;;3.50;0.85;;;;;;;26.57;29.56;100909.94;5029642;28;20388;-71
2023/08/23 00:48:06;;;;;;;3.35;1.20;;;;;;;26.66;28.99;100909.63;5027846;28;20595;-69
2023/08/23 00:50:36;;;;;;;2.25;1.00;;;;;;;26.72;29.24;100918.25;5025178;28;20045;-70
2023/08/23 00:53:05;;;;;;;3.97;1.63;;;;;;;26.77;28.62;100912.78;5020817;28;20535;-69
2023/08/23 00:55:35;;;;;;;3.05;0.93;;;;;;;26.76;28.89;100915.50;5020540;28;20046;-70
2023/08/23 00:58:04;;;;;;;2.05;0.80;;;;;;;26.73;28.97;100916.44;5021580;28;20100;-70
2023/08/23 01:00:33;;;;;;;4.60;1.10;;;;;;;26.74;29.07;100918.19;5027568;28;20050;-69
2023/08/23 01:03:02;;;;;;;1.30;0.70;;;;;;;26.76;29.20;100911.06;5019328;28;20049;-73
2023/08/23 01:05:37;;;;;;;2.97;0.77;;;;;;;26.80;29.06;100923.31;5026552;28;20099;-71
2023/08/23 01:08:16;;;;;;;2.80;0.93;;;;;;;26.80;28.69;100922.41;5021849;28;20101;-73
2023/08/23 01:10:54;;;;;;;2.95;0.88;;;;;;;26.80;28.97;100918.00;5024105;28;20057;-71
2023/08/23 01:13:29;;;;;;;1.05;0.50;;;;;;;26.75;28.37;100919.94;5016569;28;20049;-73
2023/08/23 01:16:00;;;;;;;1.83;0.80;;;;;;;26.60;29.11;100924.00;5027839;28;20060;-72
2023/08/23 01:18:30;;;;;;;2.97;0.60;;;;;;;26.53;29.40;100925.09;5019782;28;20049;-69
2023/08/23 01:21:03;;;;;;;4.35;0.82;;;;;;;26.50;29.46;100928.72;5022542;28;20452;-73
2023/08/23 01:23:33;;;;;;;5.10;1.10;;;;;;;26.41;29.44;100925.50;5021830;28;20521;-70
2023/08/23 01:26:03;;;;;;;2.15;1.45;;;;;;;26.28;29.57;100925.06;5029329;28;20050;-71
2023/08/23 01:28:32;;;;;;;1.83;1.00;;;;;;;26.18;29.30;100939.50;5028973;28;20045;-72
2023/08/23 01:31:05;;;;;;;2.33;0.98;;;;;;;26.09;30.10;100940.69;5022812;28;20127;-70
2023/08/23 01:33:39;;;;;;;3.00;1.08;;;;;;;26.06;29.88;100940.78;5023895;28;20096;-69
2023/08/23 01:36:14;;;;;;;5.78;1.10;;;;;;;25.98;30.46;100943.69;5021780;28;20054;-72
2023/08/23 01:38:45;;;;;;;3.22;1.38;;;;;;;25.89;29.97;100943.97;5025008;28;20046;-70
2023/08/23 01:41:15;;;;;;;3.47;1.30;;;;;;;25.80;30.08;100944.22;5028451;28;20053;-70
2023/08/23 01:43:46;;;;;;;2.15;1.00;;;;;;;25.71;30.52;100942.72;5017527;28;20041;-70
2023/08/23 01:46:19;;;;;;;1.98;1.10;;;;;;;25.63;29.95;100953.56;5027419;28;20054;-74
2023/08/23 01:48:48;;;;;;;4.78;1.45;;;;;;;25.50;30.24;100939.81;5028089;28;20045;-78
2023/08/23 01:51:17;;;;;;;3.50;1.30;;;;;;;25.53;30.69;100957.38;5024636;28;20069;-75
2023/08/23 01:53:47;;;;;;;1.83;1.15;;;;;;;25.47;30.21;100957.56;5018730;28;20045;-71
2023/08/23 01:56:15;;;;;;;2.90;1.30;;;;;;;25.43;30.41;100955.94;5023794;28;20053;-68
2023/08/23 01:58:47;;;;;;;3.50;1.30;;;;;;;25.40;30.32;100950.69;5017675;28;20113;-76
2023/08/23 02:01:16;;;;;;;2.08;1.20;;;;;;;25.32;30.89;100956.22;5025686;28;20096;-75
2023/08/23 02:03:44;;;;;;;1.77;1.10;;;;;;;25.28;30.37;100952.78;5020799;28;20049;-76
2023/08/23 02:06:13;;;;;;;2.47;1.05;;;;;;;25.23;30.64;100960.00;5027533;28;20045;-71
2023/08/23 02:08:44;;;;;;;2.65;1.25;;;;;;;25.20;30.72;100965.41;5023304;28;20052;-71
2023/08/23 02:11:14;;;;;;;7.47;2.53;;;;;;;25.15;30.92;100966.38;5026107;28;20932;-74
2023/08/23 02:13:42;;;;;;;2.92;1.25;;;;;;;25.05;29.65;100971.06;5027771;28;20038;-73
2023/08/23 02:16:11;;;;;;;5.20;1.25;;;;;;;24.98;29.84;100974.81;5027264;28;20112;-73
2023/08/23 02:18:39;;;;;;;2.92;1.15;;;;;;;24.91;29.65;100967.94;5024844;28;20049;-71
2023/08/23 02:21:08;;;;;;;3.22;1.30;;;;;;;24.86;30.33;100981.28;5024262;28;20107;-73
2023/08/23 02:23:37;;;;;;;2.08;1.10;;;;;;;24.82;29.96;100976.97;5027087;28;20073;-72
2023/08/23 02:26:06;;;;;;;1.85;1.25;;;;;;;24.69;30.42;100984.34;5024647;28;20049;-72
2023/08/23 02:28:36;;;;;;;2.05;1.15;;;;;;;24.52;30.42;100982.13;5033506;28;20128;-72
2023/08/23 02:31:05;;;;;;;2.33;1.33;;;;;;;24.39;31.09;100992.09;5027934;28;20084;-72
2023/08/23 02:33:36;;;;;;;2.45;1.10;;;;;;;24.25;31.47;101004.78;5034164;28;20037;-75
2023/08/23 02:36:05;;;;;;;2.58;1.20;;;;;;;24.08;31.51;101001.69;5023728;28;20053;-72
2023/08/23 02:38:33;;;;;;;3.25;1.50;;;;;;;23.89;32.63;101002.09;5031008;28;20099;-75
2023/08/23 02:41:03;;;;;;;2.35;1.45;;;;;;;23.75;32.47;101004.13;5032046;28;20625;-75
2023/08/23 02:43:37;;;;;;;4.05;1.65;;;;;;;23.65;33.03;101002.56;5030177;28;20049;-70
2023/08/23 02:46:05;;;;;;;2.83;1.92;;;;;;;23.54;33.07;101001.00;5032201;28;20103;-70
2023/08/23 02:48:34;;;;;;;3.72;1.77;;;;;;;23.41;33.33;101007.47;5026797;28;20080;-74
2023/08/23 02:51:03;;;;;;;2.90;1.73;;;;;;;23.29;33.76;101002.41;5022553;28;20065;-73
2023/08/23 02:53:32;;;;;;;4.45;2.10;;;;;;;23.25;33.89;101020.09;5021114;28;20437;-72
2023/08/23 02:56:00;;;;;;;4.55;2.28;;;;;;;23.14;35.05;101009.72;5030220;28;20061;-73
2023/08/23 02:58:29;;;;;;;4.60;2.25;;;;;;;23.08;35.52;101011.59;5027975;28;20183;-74
2023/08/23 03:00:59;;;;;;;3.65;1.70;;;;;;;23.00;35.17;101017.03;5030994;28;20559;-74
2023/08/23 03:03:27;;;;;;;3.40;2.10;;;;;;;22.91;35.23;101019.78;5026851;28;20429;-75
2023/08/23 03:05:58;;;;;;;3.35;2.05;;;;;;;22.83;35.63;101025.19;5030323;28;20096;-72
2023/08/23 03:08:27;;;;;;;5.20;2.28;;;;;;;22.76;35.74;101027.03;5031444;28;20083;-75
2023/08/23 03:11:04;;;;;;;2.97;1.90;;;;;;;22.65;35.98;101028.97;5032560;28;20093;-76
2023/08/23 03:13:33;;;;;;;4.72;2.10;;;;;;;22.53;36.76;101032.69;5028498;28;20049;-77
2023/08/23 03:16:10;;;;;;;6.20;2.00;;;;;;;22.46;37.04;101043.38;5032334;28;20054;-76
2023/08/23 03:18:39;;;;;;;15.75;2.33;;;;;;;22.38;36.45;101043.50;5025019;28;20049;-78
2023/08/23 03:21:07;;;;;;;10.45;2.63;;;;;;;22.30;36.85;101048.84;5018325;28;20049;-72
2023/08/23 03:23:36;;;;;;;3.90;2.50;;;;;;;22.24;36.88;101045.44;5029383;28;20053;-75
2023/08/23 03:26:07;;;;;;;4.50;2.20;;;;;;;22.15;37.36;101049.03;5014738;28;20123;-77
2023/08/23 03:28:35;;;;;;;3.17;2.30;;;;;;;22.09;37.16;101062.31;5027404;28;20052;-77
2023/08/23 03:31:06;;;;;;;5.78;2.13;;;;;;;22.00;37.58;101055.38;5018847;28;20063;-77
2023/08/23 03:33:34;;;;;;;5.10;2.50;;;;;;;21.93;37.82;101059.00;5033188;28;20049;-77
2023/08/23 03:36:03;;;;;;;3.90;2.03;;;;;;;21.86;37.90;101058.19;5019141;28;20050;-77
2023/08/23 03:38:32;;;;;;;2.80;2.15;;;;;;;21.79;38.37;101061.81;5027152;28;20100;-76
2023/08/23 03:41:01;;;;;;;4.45;2.17;;;;;;;21.73;38.28;101067.13;5022915;28;20499;-74
2023/08/23 03:43:30;;;;;;;4.13;2.20;;;;;;;21.66;38.46;101068.09;5027772;28;20037;-76
2023/08/23 03:45:59;;;;;;;4.80;2.13;;;;;;;21.51;38.95;101059.50;5028788;28;20598;-76
2023/08/23 03:48:36;;;;;;;4.57;2.38;;;;;;;21.48;39.01;101080.56;5026553;28;20057;-76
2023/08/23 03:51:05;;;;;;;3.65;2.28;;;;;;;21.32;39.70;101076.31;5031266;28;20049;-76
2023/08/23 03:53:33;;;;;;;3.17;2.08;;;;;;;21.32;39.83;101090.34;5020531;28;20503;-76
2023/08/23 03:56:02;;;;;;;4.05;2.13;;;;;;;21.26;39.45;101097.44;5029810;28;20041;-75
2023/08/23 03:58:32;;;;;;;3.97;2.40;;;;;;;21.15;40.23;101100.16;5028394;28;20068;-76
2023/08/23 04:01:01;;;;;;;4.95;2.38;;;;;;;21.04;40.28;101102.88;5033525;28;20056;-76
2023/08/23 04:03:31;;;;;;;3.92;2.22;;;;;;;20.94;40.63;101106.47;5021066;28;20472;-76
2023/08/23 04:06:02;;;;;;;8.35;2.03;;;;;;;20.85;41.05;101112.69;5024691;28;20053;-76
2023/08/23 04:08:37;;;;;;;4.20;2.30;;;;;;;20.77;41.25;101110.97;5029181;28;20048;-80
2023/08/23 04:11:05;;;;;;;4.05;2.10;;;;;;;20.72;41.41;101116.28;5033071;28;20053;-80
2023/08/23 04:13:34;;;;;;;3.35;1.77;;;;;;;20.66;41.15;101114.56;5019699;28;20076;-80
2023/08/23 04:16:02;;;;;;;3.58;1.80;;;;;;;20.63;41.81;101117.19;5035210;28;20057;-78
2023/08/23 04:18:35;;;;;;;3.47;1.80;;;;;;;20.56;42.05;101123.38;5024747;28;20050;-79
2023/08/23 04:21:04;;;;;;;3.95;2.13;;;;;;;20.46;42.14;101124.28;5017906;28;20046;-74
2023/08/23 04:23:32;;;;;;;3.20;2.05;;;;;;;20.38;42.90;101119.06;5022253;28;20046;-76
2023/08/23 04:26:01;;;;;;;6.95;2.30;;;;;;;20.35;42.96;101131.34;5020270;28;20111;-76
2023/08/23 04:28:29;;;;;;;4.30;2.45;;;;;;;20.34;43.62;101132.22;5025000;28;20052;-74
2023/08/23 04:31:05;;;;;;;3.13;2.05;;;;;;;20.31;43.99;101133.09;5026314;28;20118;-76
2023/08/23 04:33:35;;;;;;;4.00;2.20;;;;;;;20.26;43.93;101132.28;5028197;28;20131;-77
2023/08/23 04:36:04;;;;;;;4.45;2.55;;;;;;;20.24;45.03;101134.91;5020419;28;20468;-75
2023/08/23 04:38:33;;;;;;;4.15;1.80;;;;;;;20.21;44.51;101140.16;5017709;28;20049;-75
2023/08/23 04:41:05;;;;;;;4.32;2.25;;;;;;;20.20;44.81;101141.06;5026156;28;20768;-76
2023/08/23 04:43:34;;;;;;;5.13;2.28;;;;;;;20.16;44.88;101144.56;5010530;28;20058;-76
2023/08/23 04:46:03;;;;;;;4.68;2.05;;;;;;;20.13;45.01;101148.94;5021681;28;20152;-76
2023/08/23 04:48:31;;;;;;;2.45;1.75;;;;;;;20.06;45.55;101146.34;5012825;28;20104;-76
2023/08/23 04:51:08;;;;;;;4.07;2.25;;;;;;;19.92;46.29;101150.78;5022794;28;20049;-76
2023/08/23 04:53:36;;;;;;;4.13;2.35;;;;;;;19.83;46.23;101148.16;5021579;28;20049;-76
2023/08/23 04:56:05;;;;;;;6.47;2.55;;;;;;;19.77;46.38;101154.31;5020312;28;20064;-76
2023/08/23 04:58:34;;;;;;;3.28;2.25;;;;;;;19.70;46.26;101149.97;5026333;28;20045;-76
2023/08/23 05:01:05;;;;;;;2.72;1.95;;;;;;;19.66;46.89;101149.03;5023114;28;20046;-75
2023/08/23 05:03:35;;;;;;;2.38;1.90;;;;;;;19.61;46.81;101147.31;5019308;28;20065;-76
2023/08/23 05:06:05;;;;;;;6.68;2.10;;;;;;;19.56;47.25;101157.81;5021377;28;20135;-77
2023/08/23 05:08:37;;;;;;;3.30;2.20;;;;;;;19.50;47.58;101160.44;5020357;28;20415;-76
2023/08/23 05:11:08;;;;;;;5.90;2.67;;;;;;;19.44;47.84;101163.94;5024406;28;20056;-76
2023/08/23 05:13:37;;;;;;;3.00;2.17;;;;;;;19.37;48.29;101164.81;5018037;28;20045;-76
2023/08/23 05:16:05;;;;;;;6.32;2.97;;;;;;;19.32;48.67;101163.94;5012647;28;20082;-77
2023/08/23 05:18:34;;;;;;;5.82;2.33;;;;;;;19.23;48.49;101167.44;5018406;28;20049;-73
2023/08/23 05:21:04;;;;;;;4.07;2.03;;;;;;;19.17;48.72;101170.09;5015439;28;20136;-73
2023/08/23 05:23:35;;;;;;;5.97;2.40;;;;;;;19.13;49.11;101170.06;5021229;28;20049;-72
2023/08/23 05:26:04;;;;;;;3.58;1.88;;;;;;;19.09;49.36;101165.69;5019357;28;20463;-73
2023/08/23 05:28:33;;;;;;;4.85;2.53;;;;;;;19.08;49.69;101166.56;5021175;28;20060;-73
2023/08/23 05:31:03;;;;;;;6.38;2.20;;;;;;;19.05;49.91;101168.28;5022132;28;20068;-73
2023/08/23 05:33:39;;;;;;;4.93;2.47;;;;;;;19.06;49.81;101171.81;5019196;28;20049;-72
2023/08/23 05:36:10;;;;;;;4.97;2.08;;;;;;;19.02;50.41;101184.03;5021040;28;20061;-72
2023/08/23 05:38:38;;;;;;;3.75;2.28;;;;;;;18.97;50.64;101185.78;5016170;28;20063;-73
2023/08/23 05:41:07;;;;;;;3.85;1.90;;;;;;;18.89;51.32;101192.75;5024192;28;20072;-71
2023/08/23 05:43:36;;;;;;;3.88;2.15;;;;;;;18.81;51.78;101194.50;5014717;28;20529;-72
2023/08/23 05:46:05;;;;;;;4.25;2.33;;;;;;;18.76;51.77;101202.31;5024160;28;20126;-72
2023/08/23 05:48:35;;;;;;;4.13;2.50;;;;;;;18.69;51.90;101204.88;5011321;28;20451;-74
2023/08/23 05:51:04;;;;;;;6.13;2.67;;;;;;;18.63;52.00;101211.88;5011833;28;20058;-74
2023/08/23 05:53:41;;;;;;;3.78;2.28;;;;;;;18.54;51.48;101201.34;5010112;28;20522;-73
2023/08/23 05:56:18;;;;;;;8.13;2.28;;;;;;;18.45;52.54;101201.31;5018780;28;20170;-73
2023/08/23 05:58:47;;;;;;;5.32;2.28;;;;;;;18.36;52.77;101201.28;5010125;28;20045;-73
2023/08/23 06:01:19;;;;;;;6.22;1.98;;;;;;;18.32;52.32;101199.50;5007282;28;20053;-73
2023/08/23 06:03:49;;;;;;;5.65;2.45;;;;;;;18.29;52.99;101203.00;5009413;28;20053;-73
2023/08/23 06:06:17;;;;;;;5.10;2.58;;;;;;;18.26;52.91;101200.38;5001982;28;20081;-73
2023/08/23 06:08:47;;;;;;;4.32;2.05;;;;;;;18.24;53.38;101193.38;5005858;28;20104;-73
2023/08/23 06:11:16;;;;;;;4.70;2.08;;;;;;;18.20;53.02;101201.19;5011271;28;20046;-72
2023/08/23 06:13:51;;;;;;;3.88;2.22;;;;;;;18.13;54.03;101204.66;5006955;28;20600;-72
2023/08/23 06:16:20;;;;;;;4.70;2.53;;;;;;;17.99;55.88;101201.94;5006888;28;20049;-71
2023/08/23 06:18:49;;;;;;;8.95;2.00;;;;;;;17.82;54.60;101207.94;5002226;28;20286;-73
2023/08/23 06:21:17;;;;;;;4.60;2.30;;;;;;;17.72;55.76;101201.75;5007328;28;20133;-72
2023/08/23 06:23:47;;;;;;;7.53;1.83;;;;;;;17.62;56.55;101206.03;5007700;28;20129;-73
2023/08/23 06:26:16;;;;;;;3.15;1.67;;;;;;;17.52;57.13;101212.94;5008696;28;20730;-71
2023/08/23 06:28:44;;;;;;;1.83;1.63;;;;;;;17.41;57.34;101211.06;5000323;28;20061;-72
2023/08/23 06:31:20;;;;;;;6.60;2.30;;;;;;;17.32;57.35;101218.00;5005818;28;20468;-72
2023/08/23 06:33:49;;;;;;;3.95;1.67;;;;;;;17.24;57.83;101214.41;4997646;28;20058;-73
2023/08/23 06:36:18;;;;;;;6.65;2.00;;;;;;;17.22;57.43;101220.50;5011575;28;20538;-73
2023/08/23 06:38:48;;;;;;;5.82;2.28;;;;;;;17.22;57.62;101221.38;5009008;28;20045;-73
2023/08/23 06:41:17;;;;;;;4.45;2.20;;;;;;;17.17;57.06;101210.00;5007881;28;20042;-73
2023/08/23 06:43:48;;;;;;;3.08;1.60;;;;;;;17.22;57.76;101225.72;5009193;28;20057;-73
2023/08/23 06:46:17;;;;;;;3.38;1.92;;;;;;;17.18;57.25;101222.22;5004106;28;20049;-73
2023/08/23 06:48:46;;;;;;;2.97;1.80;;;;;;;17.14;57.53;101223.91;4997614;28;20053;-74
2023/08/23 06:51:14;;;;;;;3.90;1.63;;;;;;;17.12;57.93;101225.63;5003733;28;20113;-73
2023/08/23 06:53:43;;;;;;;3.60;1.83;;;;;;;17.12;57.85;101232.63;5004806;28;20054;-74
2023/08/23 06:56:16;;;;;;;2.65;1.73;;;;;;;17.05;58.45;101225.56;5021553;28;20572;-73
2023/08/23 06:58:44;;;;;;;4.28;2.13;;;;;;;17.07;59.32;101236.94;5023822;28;20569;-73
2023/08/23 07:01:16;;;;;;;4.65;1.90;;;;;;;17.04;58.98;101234.25;5023874;28;20050;-73
2023/08/23 07:03:44;;;;;;;3.60;2.05;;;;;;;17.02;59.36;101233.38;5027497;28;20542;-74
2023/08/23 07:06:16;;;;;;;6.47;1.88;;;;;;;17.00;60.11;101235.13;5025016;28;20571;-73
2023/08/23 07:08:45;;;;;;;3.67;2.17;;;;;;;16.98;60.18;101229.00;5025717;28;20076;-74
2023/08/23 07:11:15;;;;;;;2.95;1.83;;;;;;;16.95;60.52;101241.16;5021583;28;20052;-73
2023/08/23 07:13:44;;;;;;;4.72;1.60;;;;;;;16.89;60.85;101237.59;5025806;28;20141;-73
2023/08/23 07:16:13;;;;;;;3.65;1.85;;;;;;;16.79;62.32;101241.84;5025681;28;20759;-74
2023/08/23 07:18:44;;;;;;;3.25;1.70;;;;;;;16.71;62.71;101244.31;5021690;28;20818;-73
2023/08/23 07:21:14;;;;;;;3.10;1.73;;;;;;;16.66;62.27;101246.00;5026728;28;20077;-72
2023/08/23 07:23:43;;;;;;;4.30;1.75;;;;;;;16.63;62.48;101245.06;5029498;28;20053;-73
2023/08/23 07:26:12;;;;;;;2.78;1.55;;;;;;;16.63;61.62;101247.69;5026738;28;20052;-73
2023/08/23 07:28:42;;;;;;;2.75;1.75;;;;;;;16.61;62.22;101257.28;5028680;28;20412;-73
2023/08/23 07:31:11;;;;;;;5.32;1.80;;;;;;;16.57;62.87;101258.94;5025732;28;20109;-73
2023/08/23 07:33:40;;;;;;;4.05;1.83;;;;;;;16.53;62.35;101255.41;5025701;28;20050;-73
2023/08/23 07:36:09;;;;;;;5.65;2.00;;;;;;;16.51;63.13;101259.72;5023365;28;20140;-73
2023/08/23 07:38:40;;;;;;;2.25;1.48;;;;;;;16.47;62.84;101257.06;5023052;28;20053;-73
2023/08/23 07:41:11;;;;;;;3.60;1.77;;;;;;;16.45;63.06;101257.06;5024560;28;20049;-73
2023/08/23 07:43:41;;;;;;;3.35;1.98;;;;;;;16.42;63.72;101262.22;5020778;28;20503;-74
2023/08/23 07:46:10;;;;;;;4.35;1.70;;;;;;;16.38;63.88;101265.69;5026519;28;20042;-73
2023/08/23 07:48:40;;;;;;;8.35;1.80;;;;;;;16.36;64.01;101267.38;5018586;28;20112;-73
2023/08/23 07:51:12;;;;;;;7.35;1.98;;;;;;;16.31;64.79;101269.94;5019965;28;20499;-73
2023/08/23 07:53:42;;;;;;;10.68;2.20;;;;;;;16.27;64.92;101273.34;5016296;28;20057;-73
2023/08/23 07:56:10;;;;;;;3.97;1.70;;;;;;;16.25;65.11;101274.19;5023395;28;21011;-73
2023/08/23 07:58:41;;;;;;;4.22;1.95;;;;;;;16.22;65.66;101277.63;5025403;28;20613;-73
2023/08/23 08:01:12;;;;;;;2.92;1.50;;;;;;;16.21;65.71;101283.69;5026924;28;20056;-73
2023/08/23 08:03:41;;;;;;;4.70;1.50;;;;;;;16.17;65.49;101291.47;5025294;28;20038;-73
2023/08/23 08:06:09;;;;;;;4.45;1.60;;;;;;;16.13;66.88;101291.44;5021979;28;20037;-73
2023/08/23 08:08:41;;;;;;;4.53;1.63;;;;;;;16.12;67.05;101294.88;5024179;28;20514;-74
2023/08/23 08:11:11;;;;;;;2.47;1.55;;;;;;;16.09;66.58;101289.63;5026712;28;20071;-73
2023/08/23 08:13:40;;;;;;;4.70;2.35;;;;;;;16.06;67.09;101294.78;5025665;28;20049;-73
2023/08/23 08:16:11;;;;;;;5.97;1.77;;;;;;;16.04;67.95;101293.03;5023565;28;20064;-74
2023/08/23 08:18:40;;;;;;;3.95;1.85;;;;;;;16.00;68.11;101289.47;5028268;28;20573;-73
2023/08/23 08:21:11;;;;;;;3.88;1.70;;;;;;;16.00;67.92;101302.53;5026785;28;20442;-73
2023/08/23 08:23:40;;;;;;;3.33;1.50;;;;;;;15.98;68.03;101308.56;5029538;28;20755;-73
2023/08/23 08:26:11;;;;;;;6.20;1.80;;;;;;;15.96;68.18;101307.66;5025701;28;20107;-73
2023/08/23 08:28:42;;;;;;;5.75;1.77;;;;;;;15.93;68.92;101303.28;5021568;28;21103;-73
2023/08/23 08:31:13;;;;;;;7.88;2.38;;;;;;;15.89;69.88;101312.78;5025582;28;20053;-73
2023/08/23 08:33:42;;;;;;;6.47;2.00;;;;;;;15.85;69.76;101305.78;5027986;28;21240;-72
2023/08/23 08:36:12;;;;;;;2.67;1.35;;;;;;;15.79;70.18;101299.56;5021350;28;20111;-73
2023/08/23 08:38:41;;;;;;;4.00;1.63;;;;;;;15.84;70.29;101314.44;5023994;28;20046;-73
2023/08/23 08:41:11;;;;;;;5.38;2.15;;;;;;;15.83;69.82;101312.69;5027124;28;20408;-73
2023/08/23 08:43:40;;;;;;;3.10;1.70;;;;;;;15.83;69.25;101309.22;5026870;28;20049;-73
2023/08/23 08:46:08;;;;;;;3.72;1.98;;;;;;;15.80;69.59;101311.75;5024211;28;20103;-73
2023/08/23 08:48:39;;;;;;;4.43;1.85;;;;;;;15.77;69.56;101316.94;5026611;28;20049;-74
2023/08/23 08:51:18;;;;;;;4.72;1.73;;;;;;;15.67;69.56;101308.03;5026324;28;20057;-72
2023/08/23 08:53:49;;;;;;;3.88;1.83;;;;;;;15.55;70.74;101313.03;5030051;28;20057;-71
2023/08/23 08:56:20;;;;;;;5.35;2.63;;;;;;;15.35;71.35;101297.91;5029516;28;20049;-72
2023/08/23 08:58:49;;;;;;;4.95;2.03;;;;;;;15.35;71.60;101310.06;5028653;28;20095;-72
2023/08/23 09:01:19;;;;;;;7.68;2.67;;;;;;;15.35;71.05;101307.47;5027373;28;20037;-71
2023/08/23 09:03:49;;;;;;;7.22;2.20;;;;;;;15.37;71.20;101305.72;5021003;28;20053;-72
2023/08/23 09:06:20;;;;;;;5.93;1.80;;;;;;;15.37;70.64;101301.41;5024716;28;20511;-71
2023/08/23 09:08:48;;;;;;;6.53;2.53;;;;;;;15.33;71.62;101303.94;5021209;28;20041;-72
2023/08/23 09:11:17;;;;;;;4.55;1.70;;;;;;;15.31;71.50;101300.44;5022196;28;20095;-71
2023/08/23 09:13:47;;;;;;;4.53;2.17;;;;;;;15.31;71.42;101300.44;5027426;28;20060;-72
2023/08/23 09:16:16;;;;;;;4.18;2.05;;;;;;;15.27;71.25;101305.56;5023884;28;20050;-73
2023/08/23 09:18:49;;;;;;;7.38;2.50;;;;;;;15.24;71.23;101315.06;5024898;28;20049;-72
2023/08/23 09:21:20;;;;;;;3.30;1.83;;;;;;;15.23;71.39;101314.19;5021810;28;20107;-72
2023/08/23 09:23:49;;;;;;;4.57;2.53;;;;;;;15.23;71.32;101316.81;5025930;28;20069;-72
2023/08/23 09:26:17;;;;;;;5.28;2.22;;;;;;;15.21;70.89;101315.00;5020727;28;20060;-72
2023/08/23 09:28:46;;;;;;;4.38;2.20;;;;;;;15.19;71.18;101317.59;5023114;28;20057;-72
2023/08/23 09:31:17;;;;;;;3.53;1.58;;;;;;;15.16;71.00;101312.28;5021568;28;20066;-72
2023/08/23 09:33:46;;;;;;;3.13;1.70;;;;;;;15.16;71.41;101309.69;5022631;28;20082;-72
2023/08/23 09:36:26;;;;;;;3.90;1.95;;;;;;;15.14;72.18;101314.03;5026458;28;20108;-72
2023/08/23 09:38:55;;;;;;;3.78;2.08;;;;;;;15.12;71.68;101320.03;5023173;28;20053;-72
2023/08/23 09:41:24;;;;;;;4.32;2.00;;;;;;;15.09;72.19;101315.63;5020748;28;20053;-73
2023/08/23 09:43:56;;;;;;;5.97;2.30;;;;;;;15.07;72.46;101315.63;5023067;28;20375;-73
2023/08/23 09:46:27;;;;;;;2.83;1.80;;;;;;;15.06;72.36;101320.78;5021297;28;20099;-73
2023/08/23 09:48:56;;;;;;;4.15;2.17;;;;;;;15.06;72.35;101323.41;5019150;28;20107;-73
2023/08/23 09:51:28;;;;;;;3.17;2.30;;;;;;;15.05;73.49;101329.47;5022024;28;20050;-72
2023/08/23 09:53:59;;;;;;;4.28;2.13;;;;;;;15.01;73.37;101327.66;5024278;28;20459;-71
2023/08/23 09:56:28;;;;;;;3.28;1.90;;;;;;;14.98;73.25;101331.06;5023120;28;20060;-72
2023/08/23 09:58:58;;;;;;;4.40;1.88;;;;;;;14.98;73.43;101338.00;5022010;28;20058;-73
2023/08/23 10:01:27;;;;;;;5.95;1.80;;;;;;;14.97;73.58;101334.50;5024082;28;20428;-72
2023/08/23 10:03:56;;;;;;;5.00;2.00;;;;;;;14.96;73.95;101334.50;5023358;28;20052;-72
2023/08/23 10:06:27;;;;;;;5.03;1.88;;;;;;;14.94;74.48;101334.47;5024808;28;20065;-72
2023/08/23 10:08:58;;;;;;;2.67;1.52;;;;;;;14.93;74.04;101340.50;5024054;28;20049;-72
2023/08/23 10:11:29;;;;;;;2.20;1.33;;;;;;;14.90;75.48;101339.56;5023516;28;20039;-73
2023/08/23 10:14:06;;;;;;;2.75;1.88;;;;;;;14.89;75.54;101336.09;5031681;28;20054;-72
2023/08/23 10:16:36;;;;;;;3.05;1.95;;;;;;;14.88;75.56;101326.50;5020180;28;20037;-73
2023/08/23 10:19:05;;;;;;;5.05;2.20;;;;;;;14.88;76.28;101337.78;5020837;28;20054;-72
2023/08/23 10:21:38;;;;;;;7.05;1.95;;;;;;;14.88;76.47;101337.78;5020202;28;20057;-72
2023/08/23 10:24:07;;;;;;;2.08;1.42;;;;;;;14.89;77.48;101341.31;5024867;28;20519;-73
2023/08/23 10:26:49;;;;;;;5.30;1.55;;;;;;;14.84;77.73;101336.00;5024549;28;20057;-72
2023/08/23 10:29:27;;;;;;;3.97;1.80;;;;;;;14.80;77.37;101339.38;5018146;28;20124;-73
2023/08/23 10:31:56;;;;;;;2.85;1.65;;;;;;;14.75;77.38;101333.19;5023698;28;20060;-73
2023/08/23 10:34:29;;;;;;;3.38;1.67;;;;;;;14.76;78.07;101336.69;5022080;28;20131;-75
2023/08/23 10:36:58;;;;;;;;;;;;;;;14.76;77.67;101342.75;5024080;28;20054;-74
2023/08/23 10:39:27;;;;;;;4.18;1.70;;;;;;;14.74;77.77;101341.84;5024041;28;19947;-74
2023/08/23 10:41:56;;;;;;;2.58;1.42;;;;;;;14.70;78.21;101342.63;5023198;28;20597;-74
2023/08/23 10:44:25;;;;;;;3.88;1.63;;;;;;;14.67;78.24;101342.56;5030267;28;20110;-73
2023/08/23 10:46:54;;;;;;;7.03;1.88;;;;;;;14.66;78.20;101352.09;5021553;28;20231;-72
2023/08/23 10:49:25;;;;;;;3.53;1.73;;;;;;;14.65;79.12;101354.66;5026265;28;20114;-72
2023/08/23 10:51:55;;;;;;;6.10;1.73;;;;;;;14.66;78.76;101356.44;5025888;28;20045;-73
2023/08/23 10:54:26;;;;;;;6.57;2.10;;;;;;;14.66;79.59;101352.09;5023360;28;20557;-73
2023/08/23 10:56:55;;;;;;;7.93;2.20;;;;;;;14.66;79.43;101352.09;5026283;28;20641;-73
2023/08/23 10:59:23;;;;;;;4.13;1.88;;;;;;;14.62;78.16;101354.59;5024726;28;20049;-73
2023/08/23 11:01:56;;;;;;;3.10;1.77;;;;;;;14.51;78.23;101343.03;5032345;28;20546;-73
2023/08/23 11:04:25;;;;;;;3.90;1.77;;;;;;;14.53;79.17;101356.97;5024964;28;20061;-73
2023/08/23 11:06:54;;;;;;;3.92;1.77;;;;;;;14.43;79.41;101359.34;5026105;28;20057;-72
2023/08/23 11:09:23;;;;;;;5.55;2.13;;;;;;;14.34;79.69;101356.53;5027416;28;20107;-73
2023/08/23 11:11:56;;;;;;;5.22;2.08;;;;;;;14.28;79.64;101360.72;5020231;28;20088;-73
2023/08/23 11:14:24;;;;;;;3.00;1.73;;;;;;;14.22;79.18;101362.34;5025204;28;20049;-72
2023/08/23 11:16:53;;;;;;;3.75;1.77;;;;;;;14.21;79.09;101357.09;5027161;28;20561;-72
2023/08/23 11:19:22;;;;;;;3.13;1.80;;;;;;;14.22;78.84;101361.44;5034685;28;20045;-74
2023/08/23 11:21:52;;;;;;;5.40;1.60;;;;;;;14.23;79.08;101365.81;5027627;28;20556;-73
2023/08/23 11:24:21;;;;;;;4.47;1.60;;;;;;;14.19;79.40;101354.44;5025221;28;20140;-73
2023/08/23 11:26:49;;;;;;;4.07;1.92;;;;;;;14.19;79.09;101363.97;5024484;28;20057;-72
2023/08/23 11:29:20;;;;;;;4.95;1.95;;;;;;;14.17;79.44;101366.53;5027026;28;20077;-72
2023/08/23 11:31:57;;;;;;;5.38;2.00;;;;;;;14.16;79.18;101366.50;5026452;28;20511;-72
2023/08/23 11:34:26;;;;;;;6.88;2.00;;;;;;;14.13;80.14;101362.13;5031662;28;20199;-72
2023/08/23 11:36:54;;;;;;;3.20;1.77;;;;;;;14.12;80.25;101362.06;5028289;28;20054;-72